Skidmore, Missouri
Current Conditions -  °F | °C
As of 4:35 AM on Saturday 22 Nov 2014 (Local Time) from KICL Reporting Station
Haze Haze  
Wind Chill: 36°   Ceiling: 300
Heat Index: 39°   Visibility: 1.2mi
Dew Point: 39°   Wind: 5mph
Humidity: 100%   Direction: 200°SSW
Pressure: 29.96"   Gusts: NA
Location:  40.29°N, 95.08°W
Report Text: KICL 221035Z AUTO 20004KT 1 1/4SM BR OVC003 04/04 A2996 RMK AO2
Loading
Personal Weather Stations






























Interactive Weather Map New forecast layout! Learn more

10-Day Weather Forecast

Advertisements
Track Severe Weather on mobile